Startpagina
METAR-TAF:

METAR-TAF

Vliegvelden :

San Juan, Puerto Rico, Verenigde Staten

breedte: 18-27N, lengte: 066-00W, hoogte: 3 m

Actueel weer

Dit bericht is 46 minuten geleden gemaakt, om 07:56 UTC
Wind 4 kt uit het oosten
Temperatuur 26°C
Vochtigheid 84%
Druk 1018 hPa
Zicht: 16.1 km
Weinig wolken op 3100 ft
Verspreide wolken op 6000 ft

METAR: TJSJ 250756Z 09004KT 10SM FEW031 SCT060 26/23 A3006 RMK AO2 SLP178 T02610228 $

Tijdstip: 04:42 (08:42 UTC)

Verwachting

Dit bericht is 3 uur en het 17 minuten geleden gemaakt, om 05:25 UTC
Verwachting geldig van 25 om 06 UTC tot 26 om 06 UTC
Wind 4 kt uit het oosten
Zicht: 10 km
Weinig wolken op 5000 ft
Van 25 om 1300 UTC
Wind 15 kt uit het oosten
Zicht: 10 km
Weinig wolken op 3000 ft
Weinig wolken op 6000 ft
Van 25 om 2300 UTC
Wind 8 kt uit het oosten
Zicht: 10 km
Weinig wolken op 6000 ft

TAF: TJSJ 250525Z 2506/2606 09004KT P6SM FEW050 FM251300 08015KT P6SM FEW030 FEW060 FM252300 10008KT P6SM FEW060

Waarnemingen en weersverwachtingen van meer dan 4000 vliegvelden (METAR en TAF).

De beschikbare stations zijn de gele en rode punten op de kaart.

Ga met uw muis naar het station om de naam te zien.

Klik dan om waarnemingen en weersverwachtingen te zien.

kaart wijzigen: klik op de groene knoppen met een zwart kruis om in te zoomen, op de groene knop met een streepje om uit te zoomen of op de groene pijlen voor aangrenzende kaarten.


METAR-TAF: